createdAt,value
2023-05-10T00:01:19.628Z,5.57
2023-05-10T00:03:46.452Z,6.20
2023-05-10T00:06:13.290Z,5.30
2023-05-10T00:08:39.954Z,5.05
2023-05-10T00:11:06.647Z,5.95
2023-05-10T00:13:33.521Z,5.38
2023-05-10T00:16:00.432Z,6.43
2023-05-10T00:18:27.099Z,6.75
2023-05-10T00:20:53.760Z,6.90
2023-05-10T00:23:20.380Z,5.65
2023-05-10T00:25:47.095Z,5.43
2023-05-10T00:28:13.745Z,6.95
2023-05-10T00:30:40.406Z,6.47
2023-05-10T00:33:07.090Z,5.75
2023-05-10T00:35:34.038Z,6.53
2023-05-10T00:38:00.802Z,6.78
2023-05-10T00:40:27.572Z,6.25
2023-05-10T00:42:54.243Z,6.93
2023-05-10T00:45:21.031Z,6.68
2023-05-10T00:47:47.741Z,7.18
2023-05-10T00:50:15.706Z,6.70
2023-05-10T00:52:43.659Z,7.10
2023-05-10T00:55:13.018Z,7.20
2023-05-10T00:57:40.487Z,7.53
2023-05-10T01:00:07.797Z,7.57
2023-05-10T01:02:36.432Z,7.82
2023-05-10T01:05:04.630Z,7.72
2023-05-10T01:07:31.543Z,7.13
2023-05-10T01:09:58.810Z,7.65
2023-05-10T01:12:26.219Z,7.32
2023-05-10T01:14:53.218Z,7.55
2023-05-10T01:17:20.536Z,7.88
2023-05-10T01:19:47.273Z,7.65
2023-05-10T01:22:37.438Z,7.60
2023-05-10T01:25:25.498Z,6.82
2023-05-10T01:28:24.636Z,6.85
2023-05-10T01:31:04.695Z,6.70
2023-05-10T01:33:44.010Z,6.32
2023-05-10T01:36:27.207Z,6.50
2023-05-10T01:39:10.219Z,6.68
2023-05-10T01:41:52.382Z,5.97
2023-05-10T01:44:31.216Z,5.45
2023-05-10T01:47:18.171Z,6.40
2023-05-10T01:49:51.352Z,4.63
2023-05-10T01:52:20.776Z,4.47
2023-05-10T01:54:57.035Z,4.90
2023-05-10T01:57:27.571Z,4.03
2023-05-10T01:59:55.968Z,4.50
2023-05-10T02:02:25.204Z,4.05
2023-05-10T02:04:52.459Z,3.40
2023-05-10T02:07:19.866Z,3.58
2023-05-10T02:09:48.971Z,3.45
2023-05-10T02:12:17.266Z,3.40
2023-05-10T02:14:45.118Z,3.20
2023-05-10T02:17:13.199Z,3.85
2023-05-10T02:19:42.692Z,2.83
2023-05-10T02:22:10.700Z,3.20
2023-05-10T02:24:38.541Z,3.28
2023-05-10T02:27:06.195Z,3.00
2023-05-10T02:29:34.400Z,3.45
2023-05-10T02:32:02.019Z,3.05
2023-05-10T02:34:29.177Z,3.00
2023-05-10T02:36:57.324Z,3.20
2023-05-10T02:39:25.550Z,2.67
2023-05-10T02:41:53.473Z,2.88
2023-05-10T02:44:21.489Z,2.53
2023-05-10T02:46:49.021Z,2.47
2023-05-10T08:03:00.948Z,0.60
2023-05-10T08:05:27.766Z,0.38
2023-05-10T08:07:54.404Z,0.40
2023-05-10T08:10:21.104Z,0.40
2023-05-10T08:12:47.904Z,0.60
2023-05-10T08:15:14.711Z,0.40
2023-05-10T08:17:41.552Z,0.50
2023-05-10T08:20:08.889Z,0.40
2023-05-10T08:22:35.626Z,0.50
2023-05-10T08:25:02.337Z,0.40
2023-05-10T08:27:29.034Z,0.40
2023-05-10T08:29:55.707Z,0.40
2023-05-10T08:32:22.441Z,0.75
2023-05-10T08:34:49.135Z,0.40
2023-05-10T08:37:15.881Z,0.80
2023-05-10T08:39:42.650Z,0.90
2023-05-10T08:42:10.801Z,0.80
2023-05-10T08:44:38.150Z,0.90
2023-05-10T08:47:09.316Z,0.82
2023-05-10T08:49:38.029Z,0.60
2023-05-10T08:52:06.860Z,0.90
2023-05-10T08:54:34.678Z,0.80
2023-05-10T08:57:01.986Z,1.02
2023-05-10T08:59:29.438Z,1.00
2023-05-10T09:01:59.881Z,1.17
2023-05-10T09:04:28.864Z,0.77
2023-05-10T09:06:55.922Z,1.30
2023-05-10T09:09:24.015Z,0.90
2023-05-10T09:11:50.728Z,1.10
2023-05-10T09:14:18.445Z,0.90
2023-05-10T09:16:45.379Z,1.20
2023-05-10T09:19:12.405Z,1.25
2023-05-10T09:21:39.459Z,1.27
2023-05-10T09:24:09.973Z,1.60
2023-05-10T09:26:46.342Z,1.25
2023-05-10T09:29:14.196Z,1.30
2023-05-10T09:31:53.033Z,1.42
2023-05-10T09:34:22.012Z,1.55
2023-05-10T09:36:53.382Z,1.65
2023-05-10T09:39:20.491Z,1.70
2023-05-10T09:41:48.010Z,1.08
2023-05-10T09:44:19.614Z,1.40
2023-05-10T09:46:51.777Z,0.93
2023-05-10T09:51:44.919Z,1.23
2023-05-10T09:54:16.860Z,1.30
2023-05-10T09:56:44.039Z,1.27
2023-05-10T09:59:12.634Z,1.23
2023-05-10T10:01:40.241Z,0.85
2023-05-10T10:04:10.349Z,0.95
2023-05-10T10:06:41.598Z,1.58
2023-05-10T10:09:09.082Z,1.40
2023-05-10T10:11:37.416Z,1.35
2023-05-10T10:14:04.524Z,1.65
2023-05-10T10:16:32.270Z,1.40
2023-05-10T10:18:59.587Z,1.40
2023-05-10T10:21:26.616Z,1.40
2023-05-10T10:23:54.166Z,1.50
2023-05-10T10:26:22.375Z,1.20
2023-05-10T10:29:35.810Z,1.75
2023-05-10T10:32:19.357Z,1.50
2023-05-10T10:34:46.536Z,1.60
2023-05-10T10:37:13.469Z,2.15
2023-05-10T10:39:40.273Z,1.95
2023-05-10T10:42:07.098Z,1.88
2023-05-10T10:44:37.360Z,1.92
2023-05-10T10:47:14.000Z,1.90
2023-05-10T10:49:46.806Z,2.10
2023-05-10T10:52:34.213Z,2.13
2023-05-10T10:55:25.904Z,2.00
2023-05-10T10:58:05.484Z,2.38
2023-05-10T11:00:33.937Z,2.60
2023-05-10T11:03:07.323Z,2.08
2023-05-10T11:05:38.851Z,2.22
2023-05-10T11:08:30.561Z,2.40
2023-05-10T11:11:00.303Z,2.47
2023-05-10T11:13:42.516Z,2.30
2023-05-10T11:16:12.435Z,2.13
2023-05-10T11:18:39.363Z,2.88
2023-05-10T11:21:06.298Z,2.40
2023-05-10T11:23:48.352Z,2.47
2023-05-10T11:26:15.470Z,2.40
2023-05-10T11:28:49.845Z,2.33
2023-05-10T11:31:18.275Z,2.35
2023-05-10T11:33:53.120Z,2.38
2023-05-10T11:36:24.653Z,2.45
2023-05-10T11:38:51.345Z,2.28
2023-05-10T11:41:19.748Z,2.42
2023-05-10T11:43:54.564Z,1.98
2023-05-10T11:46:24.363Z,2.67
2023-05-10T11:48:53.165Z,2.05
2023-05-10T11:51:25.006Z,2.55
2023-05-10T11:53:54.820Z,2.83
2023-05-10T11:56:21.688Z,2.63
2023-05-10T11:58:55.477Z,2.45
2023-05-10T12:01:23.036Z,2.53
2023-05-10T12:03:51.340Z,2.90
2023-05-10T12:06:19.393Z,2.38
2023-05-10T12:08:47.663Z,3.90
2023-05-10T12:11:16.386Z,2.97
2023-05-10T12:13:47.464Z,2.47
2023-05-10T12:16:22.731Z,2.80
2023-05-10T12:18:50.353Z,2.35
2023-05-10T12:21:16.988Z,2.60
2023-05-10T12:23:46.160Z,3.25
2023-05-10T12:26:12.817Z,2.95
2023-05-10T12:28:40.480Z,3.13
2023-05-10T12:31:07.764Z,2.80
2023-05-10T12:33:43.423Z,2.75
2023-05-10T12:36:17.318Z,2.60
2023-05-10T12:38:48.601Z,2.30
2023-05-10T12:41:17.696Z,2.88
2023-05-10T12:43:44.959Z,2.10
2023-05-10T12:46:13.718Z,2.25
2023-05-10T12:48:42.271Z,2.13
2023-05-10T12:51:10.582Z,3.55
2023-05-10T12:53:37.693Z,2.53
2023-05-10T12:56:04.626Z,2.70
2023-05-10T12:58:36.051Z,2.97
2023-05-10T13:01:03.452Z,2.58
2023-05-10T13:03:30.332Z,2.50
2023-05-10T13:05:57.163Z,2.50
2023-05-10T13:08:23.988Z,2.42
2023-05-10T13:10:50.710Z,2.58
2023-05-10T13:13:17.485Z,2.35
2023-05-10T13:15:44.193Z,2.40
2023-05-10T13:18:10.963Z,2.50
2023-05-10T13:20:37.956Z,3.13
2023-05-10T13:23:04.604Z,2.75
2023-05-10T13:25:31.725Z,2.70
2023-05-10T13:27:58.482Z,2.35
2023-05-10T13:30:25.097Z,1.70
2023-05-10T13:32:51.941Z,1.95
2023-05-10T13:35:18.827Z,2.10
2023-05-10T13:37:45.598Z,1.30
2023-05-10T13:40:12.642Z,1.60
2023-05-10T13:42:43.103Z,1.83
2023-05-10T13:45:10.695Z,1.83
2023-05-10T13:47:37.416Z,1.98
2023-05-10T13:50:04.597Z,1.80
2023-05-10T13:52:31.238Z,2.28
2023-05-10T13:54:58.315Z,1.85
2023-05-10T13:57:25.083Z,1.90
2023-05-10T13:59:52.411Z,2.00
2023-05-10T14:02:19.111Z,1.88
2023-05-10T14:04:45.894Z,2.05
2023-05-10T14:07:12.650Z,2.00
2023-05-10T14:09:39.513Z,1.90
2023-05-10T14:12:06.328Z,2.20
2023-05-10T14:14:33.028Z,2.35
2023-05-10T14:17:00.317Z,1.92
2023-05-10T14:19:28.100Z,2.70
2023-05-10T14:21:54.865Z,2.10
2023-05-10T14:24:21.657Z,2.63
2023-05-10T14:26:48.276Z,2.58
2023-05-10T14:29:14.970Z,2.30
2023-05-10T14:31:41.701Z,2.45
2023-05-10T14:34:08.490Z,2.13
2023-05-10T14:36:35.123Z,1.60
2023-05-10T14:39:01.894Z,2.33
2023-05-10T14:41:28.616Z,2.30
2023-05-10T14:43:55.242Z,2.30
2023-05-10T14:46:21.939Z,2.55
2023-05-10T14:48:48.602Z,2.63
2023-05-10T14:51:15.291Z,2.55
2023-05-10T14:53:42.036Z,3.20
2023-05-10T14:56:08.683Z,2.70
2023-05-10T14:58:35.294Z,2.83
2023-05-10T15:01:02.188Z,3.13
2023-05-10T15:03:29.634Z,2.78
2023-05-10T15:05:58.598Z,2.92
2023-05-10T15:08:28.824Z,2.80
2023-05-10T15:10:56.919Z,2.67
2023-05-10T15:13:23.745Z,2.70
2023-05-10T15:15:50.788Z,3.65
2023-05-10T15:18:17.800Z,2.90
2023-05-10T15:20:44.550Z,2.78
2023-05-10T15:23:11.188Z,2.83
2023-05-10T15:25:38.518Z,2.75
2023-05-10T15:28:05.920Z,2.83
2023-05-10T15:30:32.670Z,2.90
2023-05-10T15:32:59.598Z,3.08
2023-05-10T15:35:27.452Z,2.63
2023-05-10T15:37:54.295Z,2.65
2023-05-10T15:40:21.306Z,3.38
2023-05-10T15:42:48.401Z,2.85
2023-05-10T15:45:16.371Z,2.88
2023-05-10T15:47:43.431Z,2.80
2023-05-10T15:50:11.541Z,3.30
2023-05-10T15:52:38.396Z,2.67
2023-05-10T15:55:12.597Z,2.47
2023-05-10T15:57:41.055Z,2.65
2023-05-10T16:00:09.175Z,2.20
2023-05-10T16:02:36.282Z,2.47
2023-05-10T16:05:03.562Z,2.45
2023-05-10T16:07:30.386Z,2.60
2023-05-10T16:09:57.039Z,2.03
2023-05-10T16:12:23.793Z,2.33
2023-05-10T16:14:50.536Z,2.60
2023-05-10T16:17:17.406Z,2.25
2023-05-10T16:19:44.172Z,2.53
2023-05-10T16:22:10.952Z,2.30
2023-05-10T16:24:37.646Z,2.47
2023-05-10T16:27:04.337Z,2.38
2023-05-10T16:29:32.119Z,2.00
2023-05-10T16:31:58.829Z,2.15
2023-05-10T16:34:25.922Z,2.60
2023-05-10T16:36:52.744Z,2.72
2023-05-10T16:39:19.424Z,2.33
2023-05-10T16:41:46.168Z,2.40
2023-05-10T16:44:12.916Z,2.60
2023-05-10T16:46:39.746Z,1.50
2023-05-10T16:49:06.928Z,2.28
2023-05-10T16:51:33.576Z,2.45
2023-05-10T16:54:00.267Z,2.58
2023-05-10T16:56:27.047Z,2.22
2023-05-10T16:58:54.091Z,2.35
2023-05-10T17:01:21.338Z,2.05
2023-05-10T17:03:48.808Z,2.80
2023-05-10T17:06:16.239Z,2.75
2023-05-10T17:08:43.232Z,2.80
2023-05-10T17:11:09.979Z,2.53
2023-05-10T17:13:36.681Z,2.55
2023-05-10T17:16:03.825Z,2.92
2023-05-10T17:18:30.806Z,2.10
2023-05-10T17:20:57.617Z,2.28
2023-05-10T17:23:24.302Z,2.42
2023-05-10T17:25:51.129Z,2.33
2023-05-10T17:28:17.892Z,2.58
2023-05-10T17:30:44.545Z,2.42
2023-05-10T17:33:11.343Z,2.15
2023-05-10T17:35:38.054Z,2.50
2023-05-10T17:38:04.767Z,3.00
2023-05-10T17:40:32.025Z,2.20
2023-05-10T17:42:58.788Z,2.30
2023-05-10T17:45:26.384Z,3.22
2023-05-10T17:47:53.116Z,3.38
2023-05-10T17:50:19.911Z,3.90
2023-05-10T17:52:46.646Z,3.75
2023-05-10T17:55:13.387Z,3.95
2023-05-10T17:57:40.112Z,4.00
2023-05-10T18:00:09.321Z,3.20
2023-05-10T18:02:36.942Z,3.20
2023-05-10T18:05:04.734Z,4.15
2023-05-10T18:07:31.731Z,3.35
2023-05-10T18:09:58.772Z,4.35
2023-05-10T18:12:25.618Z,4.55
2023-05-10T18:14:52.367Z,4.70
2023-05-10T18:17:19.101Z,4.45
2023-05-10T18:19:45.866Z,3.97
2023-05-10T18:22:12.676Z,3.85
2023-05-10T18:24:40.283Z,4.30
2023-05-10T18:27:08.857Z,3.30
2023-05-10T18:29:36.318Z,4.45
2023-05-10T18:32:03.216Z,3.28
2023-05-10T18:34:29.922Z,4.57
2023-05-10T18:36:57.039Z,4.50
2023-05-10T18:39:25.032Z,4.72
2023-05-10T18:41:52.058Z,4.80
2023-05-10T18:44:19.176Z,4.85
2023-05-10T18:46:46.457Z,3.63
2023-05-10T18:49:13.391Z,4.07
2023-05-10T18:51:40.486Z,4.28
2023-05-10T18:54:07.395Z,3.83
2023-05-10T18:56:34.353Z,3.60
2023-05-10T18:59:01.220Z,3.70
2023-05-10T19:01:28.264Z,3.78
